sensor_id;sensor_type;location;lat;lon;timestamp;temperature;humidity
36594;DHT22;22603;47.900;8.146;2024-01-30T00:00:02;-1.00;99.90
36594;DHT22;22603;47.900;8.146;2024-01-30T00:02:50;-1.00;99.90
36594;DHT22;22603;47.900;8.146;2024-01-30T00:05:37;-1.00;99.90
36594;DHT22;22603;47.900;8.146;2024-01-30T00:08:24;-1.00;99.90
36594;DHT22;22603;47.900;8.146;2024-01-30T00:11:12;-1.00;99.90
36594;DHT22;22603;47.900;8.146;2024-01-30T00:13:59;-1.10;99.90
36594;DHT22;22603;47.900;8.146;2024-01-30T00:16:45;-1.00;99.90
36594;DHT22;22603;47.900;8.146;2024-01-30T00:19:32;-1.10;99.90
36594;DHT22;22603;47.900;8.146;2024-01-30T00:22:19;-1.00;99.90
36594;DHT22;22603;47.900;8.146;2024-01-30T00:25:06;-1.10;99.90
36594;DHT22;22603;47.900;8.146;2024-01-30T00:27:55;-1.00;99.90
36594;DHT22;22603;47.900;8.146;2024-01-30T00:30:41;-1.10;99.90
36594;DHT22;22603;47.900;8.146;2024-01-30T00:33:28;-1.00;99.90
36594;DHT22;22603;47.900;8.146;2024-01-30T00:36:15;-1.10;99.90
36594;DHT22;22603;47.900;8.146;2024-01-30T00:39:01;-1.00;99.90
36594;DHT22;22603;47.900;8.146;2024-01-30T00:41:51;-1.10;99.90
36594;DHT22;22603;47.900;8.146;2024-01-30T00:44:39;-1.10;99.90
36594;DHT22;22603;47.900;8.146;2024-01-30T00:47:26;-1.10;99.90
36594;DHT22;22603;47.900;8.146;2024-01-30T00:50:14;-1.10;99.90
36594;DHT22;22603;47.900;8.146;2024-01-30T00:53:01;-1.00;99.90
36594;DHT22;22603;47.900;8.146;2024-01-30T00:55:48;-1.10;99.90
36594;DHT22;22603;47.900;8.146;2024-01-30T00:58:34;-1.10;99.90
36594;DHT22;22603;47.900;8.146;2024-01-30T01:01:22;-1.10;99.90
36594;DHT22;22603;47.900;8.146;2024-01-30T01:04:09;-1.20;99.90
36594;DHT22;22603;47.900;8.146;2024-01-30T01:06:56;-1.20;99.90
36594;DHT22;22603;47.900;8.146;2024-01-30T01:09:42;-1.10;99.90
36594;DHT22;22603;47.900;8.146;2024-01-30T01:12:29;-1.10;99.90
36594;DHT22;22603;47.900;8.146;2024-01-30T01:15:15;-1.20;99.90
36594;DHT22;22603;47.900;8.146;2024-01-30T01:18:04;-1.10;99.90
36594;DHT22;22603;47.900;8.146;2024-01-30T01:20:51;-1.10;99.90
36594;DHT22;22603;47.900;8.146;2024-01-30T01:23:38;-1.20;99.90
36594;DHT22;22603;47.900;8.146;2024-01-30T01:26:24;-1.20;99.90
36594;DHT22;22603;47.900;8.146;2024-01-30T01:29:11;-1.20;99.90
36594;DHT22;22603;47.900;8.146;2024-01-30T01:31:58;-1.20;99.90
36594;DHT22;22603;47.900;8.146;2024-01-30T01:34:46;-1.20;99.90
36594;DHT22;22603;47.900;8.146;2024-01-30T01:37:33;-1.20;99.90
36594;DHT22;22603;47.900;8.146;2024-01-30T01:40:21;-1.20;99.90
36594;DHT22;22603;47.900;8.146;2024-01-30T01:43:08;-1.30;99.90
36594;DHT22;22603;47.900;8.146;2024-01-30T01:45:55;-1.30;99.90
36594;DHT22;22603;47.900;8.146;2024-01-30T01:48:42;-1.20;99.90
36594;DHT22;22603;47.900;8.146;2024-01-30T01:51:33;-1.20;99.90
36594;DHT22;22603;47.900;8.146;2024-01-30T01:54:21;-1.20;99.90
36594;DHT22;22603;47.900;8.146;2024-01-30T01:57:08;-1.20;99.90
36594;DHT22;22603;47.900;8.146;2024-01-30T01:59:54;-1.20;99.90
36594;DHT22;22603;47.900;8.146;2024-01-30T02:02:43;-1.30;99.90
36594;DHT22;22603;47.900;8.146;2024-01-30T02:05:32;-1.20;99.90
36594;DHT22;22603;47.900;8.146;2024-01-30T02:08:20;-1.20;99.90
36594;DHT22;22603;47.900;8.146;2024-01-30T02:11:07;-1.20;99.90
36594;DHT22;22603;47.900;8.146;2024-01-30T02:13:54;-1.20;99.90
36594;DHT22;22603;47.900;8.146;2024-01-30T02:16:41;-1.20;99.90
36594;DHT22;22603;47.900;8.146;2024-01-30T02:19:27;-1.30;99.90
36594;DHT22;22603;47.900;8.146;2024-01-30T02:22:15;-1.30;99.90
36594;DHT22;22603;47.900;8.146;2024-01-30T02:25:04;-1.30;99.90
36594;DHT22;22603;47.900;8.146;2024-01-30T02:27:51;-1.30;99.90
36594;DHT22;22603;47.900;8.146;2024-01-30T02:30:37;-1.30;99.90
36594;DHT22;22603;47.900;8.146;2024-01-30T02:33:24;-1.30;99.90
36594;DHT22;22603;47.900;8.146;2024-01-30T02:36:10;-1.30;99.90
36594;DHT22;22603;47.900;8.146;2024-01-30T02:38:58;-1.30;99.90
36594;DHT22;22603;47.900;8.146;2024-01-30T02:41:45;-1.30;99.90
36594;DHT22;22603;47.900;8.146;2024-01-30T02:44:32;-1.30;99.90
36594;DHT22;22603;47.900;8.146;2024-01-30T02:47:18;-1.40;99.90
36594;DHT22;22603;47.900;8.146;2024-01-30T02:50:06;-1.40;99.90
36594;DHT22;22603;47.900;8.146;2024-01-30T02:52:53;-1.40;99.90
36594;DHT22;22603;47.900;8.146;2024-01-30T02:55:41;-1.40;99.90
36594;DHT22;22603;47.900;8.146;2024-01-30T02:58:28;-1.50;99.90
36594;DHT22;22603;47.900;8.146;2024-01-30T03:01:15;-1.40;99.90
36594;DHT22;22603;47.900;8.146;2024-01-30T03:04:02;-1.50;99.90
36594;DHT22;22603;47.900;8.146;2024-01-30T03:06:48;-1.50;99.90
36594;DHT22;22603;47.900;8.146;2024-01-30T03:09:36;-1.50;99.90
36594;DHT22;22603;47.900;8.146;2024-01-30T03:12:24;-1.50;99.90
36594;DHT22;22603;47.900;8.146;2024-01-30T03:15:11;-1.60;99.90
36594;DHT22;22603;47.900;8.146;2024-01-30T03:17:58;-1.60;99.90
36594;DHT22;22603;47.900;8.146;2024-01-30T03:20:45;-1.60;99.90
36594;DHT22;22603;47.900;8.146;2024-01-30T03:23:32;-1.60;99.90
36594;DHT22;22603;47.900;8.146;2024-01-30T03:26:18;-1.60;99.90
36594;DHT22;22603;47.900;8.146;2024-01-30T03:29:06;-1.60;99.90
36594;DHT22;22603;47.900;8.146;2024-01-30T03:31:53;-1.60;99.90
36594;DHT22;22603;47.900;8.146;2024-01-30T03:34:40;-1.60;99.90
36594;DHT22;22603;47.900;8.146;2024-01-30T03:37:26;-1.60;99.90
36594;DHT22;22603;47.900;8.146;2024-01-30T03:40:13;-1.60;99.90
36594;DHT22;22603;47.900;8.146;2024-01-30T03:43:00;-1.70;99.90
36594;DHT22;22603;47.900;8.146;2024-01-30T03:45:49;-1.70;99.90
36594;DHT22;22603;47.900;8.146;2024-01-30T03:48:36;-1.60;99.90
36594;DHT22;22603;47.900;8.146;2024-01-30T03:51:22;-1.70;99.90
36594;DHT22;22603;47.900;8.146;2024-01-30T03:54:09;-1.60;99.90
36594;DHT22;22603;47.900;8.146;2024-01-30T03:56:55;-1.60;99.90
36594;DHT22;22603;47.900;8.146;2024-01-30T03:59:42;-1.60;99.90
36594;DHT22;22603;47.900;8.146;2024-01-30T04:02:30;-1.70;99.90
36594;DHT22;22603;47.900;8.146;2024-01-30T04:05:17;-1.70;99.90
36594;DHT22;22603;47.900;8.146;2024-01-30T04:08:04;-1.70;99.90
36594;DHT22;22603;47.900;8.146;2024-01-30T04:10:51;-1.70;99.90
36594;DHT22;22603;47.900;8.146;2024-01-30T04:13:38;-1.70;99.90
36594;DHT22;22603;47.900;8.146;2024-01-30T04:16:24;-1.70;99.90
36594;DHT22;22603;47.900;8.146;2024-01-30T04:19:12;-1.80;99.90
36594;DHT22;22603;47.900;8.146;2024-01-30T04:21:59;-1.70;99.90
36594;DHT22;22603;47.900;8.146;2024-01-30T04:24:46;-1.70;99.90
36594;DHT22;22603;47.900;8.146;2024-01-30T04:27:33;-1.70;99.90
36594;DHT22;22603;47.900;8.146;2024-01-30T04:30:19;-1.70;99.90
36594;DHT22;22603;47.900;8.146;2024-01-30T04:33:06;-1.70;99.90
36594;DHT22;22603;47.900;8.146;2024-01-30T04:35:54;-1.70;99.90
36594;DHT22;22603;47.900;8.146;2024-01-30T04:38:41;-1.80;99.90
36594;DHT22;22603;47.900;8.146;2024-01-30T04:41:27;-1.70;99.90
36594;DHT22;22603;47.900;8.146;2024-01-30T04:44:17;-1.80;99.90
36594;DHT22;22603;47.900;8.146;2024-01-30T04:47:04;-1.80;99.90
36594;DHT22;22603;47.900;8.146;2024-01-30T04:49:54;-1.80;99.90
36594;DHT22;22603;47.900;8.146;2024-01-30T04:52:42;-1.80;99.90
36594;DHT22;22603;47.900;8.146;2024-01-30T04:55:29;-1.90;99.90
36594;DHT22;22603;47.900;8.146;2024-01-30T04:58:16;-1.80;99.90
36594;DHT22;22603;47.900;8.146;2024-01-30T05:01:03;-1.80;99.90
36594;DHT22;22603;47.900;8.146;2024-01-30T05:03:50;-1.90;99.90
36594;DHT22;22603;47.900;8.146;2024-01-30T05:06:37;-1.90;99.90
36594;DHT22;22603;47.900;8.146;2024-01-30T05:09:25;-1.90;99.90
36594;DHT22;22603;47.900;8.146;2024-01-30T05:12:12;-1.90;99.90
36594;DHT22;22603;47.900;8.146;2024-01-30T05:14:59;-1.80;99.90
36594;DHT22;22603;47.900;8.146;2024-01-30T05:17:45;-1.90;99.90
36594;DHT22;22603;47.900;8.146;2024-01-30T05:20:32;-1.90;99.90
36594;DHT22;22603;47.900;8.146;2024-01-30T05:23:18;-1.80;99.90
36594;DHT22;22603;47.900;8.146;2024-01-30T05:26:06;-1.90;99.90
36594;DHT22;22603;47.900;8.146;2024-01-30T05:28:53;-1.90;99.90
36594;DHT22;22603;47.900;8.146;2024-01-30T05:31:39;-1.80;99.90
36594;DHT22;22603;47.900;8.146;2024-01-30T05:34:26;-1.80;99.90
36594;DHT22;22603;47.900;8.146;2024-01-30T05:37:13;-1.80;99.90
36594;DHT22;22603;47.900;8.146;2024-01-30T05:40:03;-1.80;99.90
36594;DHT22;22603;47.900;8.146;2024-01-30T05:42:52;-1.80;99.90
36594;DHT22;22603;47.900;8.146;2024-01-30T05:45:38;-1.80;99.90
36594;DHT22;22603;47.900;8.146;2024-01-30T05:48:25;-1.80;99.90
36594;DHT22;22603;47.900;8.146;2024-01-30T05:51:11;-1.80;99.90
36594;DHT22;22603;47.900;8.146;2024-01-30T05:53:58;-1.70;99.90
36594;DHT22;22603;47.900;8.146;2024-01-30T05:56:45;-1.70;99.90
36594;DHT22;22603;47.900;8.146;2024-01-30T05:59:33;-1.70;99.90
36594;DHT22;22603;47.900;8.146;2024-01-30T06:02:25;-1.70;99.90
36594;DHT22;22603;47.900;8.146;2024-01-30T06:05:12;-1.70;99.90
36594;DHT22;22603;47.900;8.146;2024-01-30T06:07:59;-1.70;99.90
36594;DHT22;22603;47.900;8.146;2024-01-30T06:10:46;-1.70;99.90
36594;DHT22;22603;47.900;8.146;2024-01-30T06:13:33;-1.70;99.90
36594;DHT22;22603;47.900;8.146;2024-01-30T06:16:21;-1.70;99.90
36594;DHT22;22603;47.900;8.146;2024-01-30T06:19:08;-1.70;99.90
36594;DHT22;22603;47.900;8.146;2024-01-30T06:21:55;-1.70;99.90
36594;DHT22;22603;47.900;8.146;2024-01-30T06:24:42;-1.70;99.90
36594;DHT22;22603;47.900;8.146;2024-01-30T06:27:30;-1.80;99.90
36594;DHT22;22603;47.900;8.146;2024-01-30T06:30:17;-1.70;99.90
36594;DHT22;22603;47.900;8.146;2024-01-30T06:33:06;-1.70;99.90
36594;DHT22;22603;47.900;8.146;2024-01-30T06:35:53;-1.80;99.90
36594;DHT22;22603;47.900;8.146;2024-01-30T06:38:41;-1.80;99.90
36594;DHT22;22603;47.900;8.146;2024-01-30T06:41:30;-1.80;99.90
36594;DHT22;22603;47.900;8.146;2024-01-30T06:44:16;-1.70;99.90
36594;DHT22;22603;47.900;8.146;2024-01-30T06:47:03;-1.70;99.90
36594;DHT22;22603;47.900;8.146;2024-01-30T06:49:51;-1.70;99.90
36594;DHT22;22603;47.900;8.146;2024-01-30T06:52:38;-1.70;99.90
36594;DHT22;22603;47.900;8.146;2024-01-30T06:55:28;-1.70;99.90
36594;DHT22;22603;47.900;8.146;2024-01-30T06:58:15;-1.70;99.90
36594;DHT22;22603;47.900;8.146;2024-01-30T07:01:02;-1.60;99.90
36594;DHT22;22603;47.900;8.146;2024-01-30T07:03:49;-1.70;99.90
36594;DHT22;22603;47.900;8.146;2024-01-30T07:06:37;-1.70;99.90
36594;DHT22;22603;47.900;8.146;2024-01-30T07:09:24;-1.70;99.90
36594;DHT22;22603;47.900;8.146;2024-01-30T07:12:10;-1.70;99.90
36594;DHT22;22603;47.900;8.146;2024-01-30T07:14:57;-1.60;99.90
36594;DHT22;22603;47.900;8.146;2024-01-30T07:17:45;-1.70;99.90
36594;DHT22;22603;47.900;8.146;2024-01-30T07:20:31;-1.60;99.90
36594;DHT22;22603;47.900;8.146;2024-01-30T07:23:20;-1.60;99.90
36594;DHT22;22603;47.900;8.146;2024-01-30T07:26:07;-1.50;99.90
36594;DHT22;22603;47.900;8.146;2024-01-30T07:28:54;-1.40;99.90
36594;DHT22;22603;47.900;8.146;2024-01-30T07:31:41;-1.30;99.90
36594;DHT22;22603;47.900;8.146;2024-01-30T07:34:29;-1.30;99.90
36594;DHT22;22603;47.900;8.146;2024-01-30T07:37:19;-1.20;99.90
36594;DHT22;22603;47.900;8.146;2024-01-30T07:40:08;-1.10;99.90
36594;DHT22;22603;47.900;8.146;2024-01-30T07:42:55;-1.00;99.90
36594;DHT22;22603;47.900;8.146;2024-01-30T07:45:42;-1.00;99.90
36594;DHT22;22603;47.900;8.146;2024-01-30T07:48:29;-0.90;99.90
36594;DHT22;22603;47.900;8.146;2024-01-30T07:51:15;-0.80;99.90
36594;DHT22;22603;47.900;8.146;2024-01-30T07:54:02;-0.80;99.90
36594;DHT22;22603;47.900;8.146;2024-01-30T07:56:50;-0.80;99.90
36594;DHT22;22603;47.900;8.146;2024-01-30T07:59:37;-0.60;99.90
36594;DHT22;22603;47.900;8.146;2024-01-30T08:02:23;-0.60;99.90
36594;DHT22;22603;47.900;8.146;2024-01-30T08:05:10;-0.40;99.90
36594;DHT22;22603;47.900;8.146;2024-01-30T08:07:57;-0.10;99.90
36594;DHT22;22603;47.900;8.146;2024-01-30T08:10:48;0.20;99.90
36594;DHT22;22603;47.900;8.146;2024-01-30T08:13:38;0.30;99.90
36594;DHT22;22603;47.900;8.146;2024-01-30T08:16:27;0.30;99.90
36594;DHT22;22603;47.900;8.146;2024-01-30T08:19:17;0.60;99.90
36594;DHT22;22603;47.900;8.146;2024-01-30T08:22:04;0.90;99.90
36594;DHT22;22603;47.900;8.146;2024-01-30T08:24:51;1.20;99.90
36594;DHT22;22603;47.900;8.146;2024-01-30T08:27:38;1.70;99.90
36594;DHT22;22603;47.900;8.146;2024-01-30T08:30:27;2.40;99.90
36594;DHT22;22603;47.900;8.146;2024-01-30T08:33:13;3.40;99.90
36594;DHT22;22603;47.900;8.146;2024-01-30T08:36:00;3.90;99.90
36594;DHT22;22603;47.900;8.146;2024-01-30T08:38:46;4.50;99.90
36594;DHT22;22603;47.900;8.146;2024-01-30T08:41:33;5.00;99.90
36594;DHT22;22603;47.900;8.146;2024-01-30T08:44:21;6.00;99.90
36594;DHT22;22603;47.900;8.146;2024-01-30T08:47:09;6.70;99.90
36594;DHT22;22603;47.900;8.146;2024-01-30T08:49:55;6.00;99.90
36594;DHT22;22603;47.900;8.146;2024-01-30T08:52:42;6.70;99.90
36594;DHT22;22603;47.900;8.146;2024-01-30T08:55:32;6.40;99.90
36594;DHT22;22603;47.900;8.146;2024-01-30T08:58:18;6.10;99.90
36594;DHT22;22603;47.900;8.146;2024-01-30T09:01:05;5.20;99.90
36594;DHT22;22603;47.900;8.146;2024-01-30T09:03:55;4.80;99.90
36594;DHT22;22603;47.900;8.146;2024-01-30T09:06:41;4.70;99.90
36594;DHT22;22603;47.900;8.146;2024-01-30T09:09:28;4.40;99.90
36594;DHT22;22603;47.900;8.146;2024-01-30T09:12:15;4.50;99.90
36594;DHT22;22603;47.900;8.146;2024-01-30T09:15:02;4.20;99.90
36594;DHT22;22603;47.900;8.146;2024-01-30T09:17:50;4.10;99.90
36594;DHT22;22603;47.900;8.146;2024-01-30T09:20:37;4.00;99.90
36594;DHT22;22603;47.900;8.146;2024-01-30T09:23:26;4.10;99.90
36594;DHT22;22603;47.900;8.146;2024-01-30T09:26:13;4.00;99.90
36594;DHT22;22603;47.900;8.146;2024-01-30T09:29:00;4.30;99.90
36594;DHT22;22603;47.900;8.146;2024-01-30T09:31:46;4.40;99.90
36594;DHT22;22603;47.900;8.146;2024-01-30T09:34:33;4.20;99.90
36594;DHT22;22603;47.900;8.146;2024-01-30T09:37:21;4.10;99.90
36594;DHT22;22603;47.900;8.146;2024-01-30T09:40:12;4.10;99.90
36594;DHT22;22603;47.900;8.146;2024-01-30T09:42:59;4.00;99.90
36594;DHT22;22603;47.900;8.146;2024-01-30T09:45:46;4.10;99.90
36594;DHT22;22603;47.900;8.146;2024-01-30T09:48:35;4.20;99.90
36594;DHT22;22603;47.900;8.146;2024-01-30T09:51:22;4.30;99.90
36594;DHT22;22603;47.900;8.146;2024-01-30T09:54:14;4.60;99.90
36594;DHT22;22603;47.900;8.146;2024-01-30T09:57:01;4.70;99.90
36594;DHT22;22603;47.900;8.146;2024-01-30T09:59:48;4.40;99.90
36594;DHT22;22603;47.900;8.146;2024-01-30T10:02:38;4.30;99.90
36594;DHT22;22603;47.900;8.146;2024-01-30T10:05:26;4.60;99.90
36594;DHT22;22603;47.900;8.146;2024-01-30T10:08:17;4.10;99.90
36594;DHT22;22603;47.900;8.146;2024-01-30T10:11:06;4.20;99.90
36594;DHT22;22603;47.900;8.146;2024-01-30T10:13:54;4.50;99.90
36594;DHT22;22603;47.900;8.146;2024-01-30T10:16:40;4.70;99.90
36594;DHT22;22603;47.900;8.146;2024-01-30T10:19:27;4.40;99.90
36594;DHT22;22603;47.900;8.146;2024-01-30T10:22:14;4.50;99.90
36594;DHT22;22603;47.900;8.146;2024-01-30T10:25:01;4.30;99.90
36594;DHT22;22603;47.900;8.146;2024-01-30T10:27:54;4.40;99.90
36594;DHT22;22603;47.900;8.146;2024-01-30T10:30:40;4.50;99.90
36594;DHT22;22603;47.900;8.146;2024-01-30T10:33:27;4.70;99.90
36594;DHT22;22603;47.900;8.146;2024-01-30T10:36:17;4.80;99.90
36594;DHT22;22603;47.900;8.146;2024-01-30T10:39:06;4.90;99.90
36594;DHT22;22603;47.900;8.146;2024-01-30T10:41:55;5.10;99.90
36594;DHT22;22603;47.900;8.146;2024-01-30T10:44:55;5.30;99.90
36594;DHT22;22603;47.900;8.146;2024-01-30T10:47:47;5.50;99.90
36594;DHT22;22603;47.900;8.146;2024-01-30T10:50:39;5.70;99.90
36594;DHT22;22603;47.900;8.146;2024-01-30T10:53:39;5.70;99.90
36594;DHT22;22603;47.900;8.146;2024-01-30T10:56:26;5.90;99.90
36594;DHT22;22603;47.900;8.146;2024-01-30T10:59:13;5.70;99.90
36594;DHT22;22603;47.900;8.146;2024-01-30T11:02:02;5.80;99.90
36594;DHT22;22603;47.900;8.146;2024-01-30T11:04:50;6.00;99.90
36594;DHT22;22603;47.900;8.146;2024-01-30T11:07:41;6.60;99.90
36594;DHT22;22603;47.900;8.146;2024-01-30T11:10:29;6.80;99.90
36594;DHT22;22603;47.900;8.146;2024-01-30T11:13:19;7.10;99.90
36594;DHT22;22603;47.900;8.146;2024-01-30T11:16:06;7.20;99.90
36594;DHT22;22603;47.900;8.146;2024-01-30T11:18:54;7.50;99.90
36594;DHT22;22603;47.900;8.146;2024-01-30T11:21:50;7.50;99.90
36594;DHT22;22603;47.900;8.146;2024-01-30T11:24:40;7.70;99.90
36594;DHT22;22603;47.900;8.146;2024-01-30T11:27:27;7.80;99.90
36594;DHT22;22603;47.900;8.146;2024-01-30T11:30:23;7.90;99.90
36594;DHT22;22603;47.900;8.146;2024-01-30T11:33:11;7.90;99.90
36594;DHT22;22603;47.900;8.146;2024-01-30T11:36:00;8.10;99.90
36594;DHT22;22603;47.900;8.146;2024-01-30T11:38:48;8.50;99.90
36594;DHT22;22603;47.900;8.146;2024-01-30T11:41:37;8.60;99.90
36594;DHT22;22603;47.900;8.146;2024-01-30T11:44:23;8.70;99.90
36594;DHT22;22603;47.900;8.146;2024-01-30T11:47:11;8.90;99.90
36594;DHT22;22603;47.900;8.146;2024-01-30T11:49:57;9.20;99.90
36594;DHT22;22603;47.900;8.146;2024-01-30T11:52:47;9.30;99.90
36594;DHT22;22603;47.900;8.146;2024-01-30T11:55:34;9.40;99.90
36594;DHT22;22603;47.900;8.146;2024-01-30T11:58:24;9.70;99.90
36594;DHT22;22603;47.900;8.146;2024-01-30T12:01:11;9.90;99.90
36594;DHT22;22603;47.900;8.146;2024-01-30T12:03:58;10.20;99.90
36594;DHT22;22603;47.900;8.146;2024-01-30T12:06:45;10.70;99.90
36594;DHT22;22603;47.900;8.146;2024-01-30T12:09:39;11.10;99.90
36594;DHT22;22603;47.900;8.146;2024-01-30T12:12:27;11.70;99.90
36594;DHT22;22603;47.900;8.146;2024-01-30T12:15:14;12.10;99.90
36594;DHT22;22603;47.900;8.146;2024-01-30T12:18:04;12.80;99.90
36594;DHT22;22603;47.900;8.146;2024-01-30T12:20:59;13.40;99.90
36594;DHT22;22603;47.900;8.146;2024-01-30T12:23:46;13.60;99.90
36594;DHT22;22603;47.900;8.146;2024-01-30T12:26:34;13.30;99.90
36594;DHT22;22603;47.900;8.146;2024-01-30T12:29:21;13.20;99.90
36594;DHT22;22603;47.900;8.146;2024-01-30T12:32:08;13.10;99.90
36594;DHT22;22603;47.900;8.146;2024-01-30T12:34:55;12.90;99.90
36594;DHT22;22603;47.900;8.146;2024-01-30T12:37:48;12.70;99.90
36594;DHT22;22603;47.900;8.146;2024-01-30T12:40:35;12.40;99.90
36594;DHT22;22603;47.900;8.146;2024-01-30T12:43:27;12.40;99.90
36594;DHT22;22603;47.900;8.146;2024-01-30T12:46:27;12.50;99.90
36594;DHT22;22603;47.900;8.146;2024-01-30T12:49:14;12.40;99.90
36594;DHT22;22603;47.900;8.146;2024-01-30T12:52:01;12.30;99.90
36594;DHT22;22603;47.900;8.146;2024-01-30T12:54:49;12.10;99.90
36594;DHT22;22603;47.900;8.146;2024-01-30T12:57:36;12.00;99.90
36594;DHT22;22603;47.900;8.146;2024-01-30T13:00:26;11.90;99.90
36594;DHT22;22603;47.900;8.146;2024-01-30T13:03:12;11.90;99.90
36594;DHT22;22603;47.900;8.146;2024-01-30T13:05:59;11.70;99.90
36594;DHT22;22603;47.900;8.146;2024-01-30T13:08:46;11.50;99.90
36594;DHT22;22603;47.900;8.146;2024-01-30T13:11:33;11.40;99.90
36594;DHT22;22603;47.900;8.146;2024-01-30T13:14:21;11.30;99.90
36594;DHT22;22603;47.900;8.146;2024-01-30T13:17:09;11.20;99.90
36594;DHT22;22603;47.900;8.146;2024-01-30T13:19:56;11.10;99.90
36594;DHT22;22603;47.900;8.146;2024-01-30T13:22:54;11.00;99.90
36594;DHT22;22603;47.900;8.146;2024-01-30T13:25:41;11.10;99.90
36594;DHT22;22603;47.900;8.146;2024-01-30T13:28:28;11.10;99.90
36594;DHT22;22603;47.900;8.146;2024-01-30T13:31:16;11.10;99.90
36594;DHT22;22603;47.900;8.146;2024-01-30T13:34:06;11.10;99.90
36594;DHT22;22603;47.900;8.146;2024-01-30T13:36:53;11.10;99.90
36594;DHT22;22603;47.900;8.146;2024-01-30T13:39:40;11.10;99.90
36594;DHT22;22603;47.900;8.146;2024-01-30T13:42:27;11.10;99.90
36594;DHT22;22603;47.900;8.146;2024-01-30T13:45:14;11.00;99.90
36594;DHT22;22603;47.900;8.146;2024-01-30T13:48:01;11.00;99.90
36594;DHT22;22603;47.900;8.146;2024-01-30T13:50:50;10.90;99.90
36594;DHT22;22603;47.900;8.146;2024-01-30T13:53:39;10.80;99.90
36594;DHT22;22603;47.900;8.146;2024-01-30T13:56:26;10.70;99.90
36594;DHT22;22603;47.900;8.146;2024-01-30T13:59:13;10.60;99.90
36594;DHT22;22603;47.900;8.146;2024-01-30T14:02:00;10.60;99.90
36594;DHT22;22603;47.900;8.146;2024-01-30T14:04:47;10.50;99.90
36594;DHT22;22603;47.900;8.146;2024-01-30T14:07:35;10.50;99.90
36594;DHT22;22603;47.900;8.146;2024-01-30T14:10:23;10.40;99.90
36594;DHT22;22603;47.900;8.146;2024-01-30T14:13:10;10.40;99.90
36594;DHT22;22603;47.900;8.146;2024-01-30T14:15:58;10.30;99.90
36594;DHT22;22603;47.900;8.146;2024-01-30T14:18:45;10.20;99.90
36594;DHT22;22603;47.900;8.146;2024-01-30T14:21:32;10.20;99.90
36594;DHT22;22603;47.900;8.146;2024-01-30T14:24:20;9.90;99.90
36594;DHT22;22603;47.900;8.146;2024-01-30T14:27:07;9.70;99.90
36594;DHT22;22603;47.900;8.146;2024-01-30T14:29:55;9.50;99.90
36594;DHT22;22603;47.900;8.146;2024-01-30T14:32:42;9.40;99.90
36594;DHT22;22603;47.900;8.146;2024-01-30T14:35:30;9.50;99.90
36594;DHT22;22603;47.900;8.146;2024-01-30T14:38:17;9.50;99.90
36594;DHT22;22603;47.900;8.146;2024-01-30T14:41:05;9.50;99.90
36594;DHT22;22603;47.900;8.146;2024-01-30T14:43:52;9.60;99.90
36594;DHT22;22603;47.900;8.146;2024-01-30T14:46:39;9.60;99.90
36594;DHT22;22603;47.900;8.146;2024-01-30T14:49:26;9.50;99.90
36594;DHT22;22603;47.900;8.146;2024-01-30T14:52:14;9.40;99.90
36594;DHT22;22603;47.900;8.146;2024-01-30T14:55:01;9.30;99.90
36594;DHT22;22603;47.900;8.146;2024-01-30T14:57:53;9.20;99.90
36594;DHT22;22603;47.900;8.146;2024-01-30T15:00:40;9.20;99.90
36594;DHT22;22603;47.900;8.146;2024-01-30T15:03:27;9.10;99.90
36594;DHT22;22603;47.900;8.146;2024-01-30T15:06:15;9.00;99.90
36594;DHT22;22603;47.900;8.146;2024-01-30T15:09:02;8.90;99.90
36594;DHT22;22603;47.900;8.146;2024-01-30T15:11:52;8.80;99.90
36594;DHT22;22603;47.900;8.146;2024-01-30T15:14:40;8.70;99.90
36594;DHT22;22603;47.900;8.146;2024-01-30T15:17:31;8.60;99.90
36594;DHT22;22603;47.900;8.146;2024-01-30T15:20:18;8.50;99.90
36594;DHT22;22603;47.900;8.146;2024-01-30T15:23:07;8.40;99.90
36594;DHT22;22603;47.900;8.146;2024-01-30T15:25:53;8.40;99.90
36594;DHT22;22603;47.900;8.146;2024-01-30T15:28:40;8.20;99.90
36594;DHT22;22603;47.900;8.146;2024-01-30T15:31:28;8.20;99.90
36594;DHT22;22603;47.900;8.146;2024-01-30T15:34:16;8.10;99.90
36594;DHT22;22603;47.900;8.146;2024-01-30T15:37:03;8.10;99.90
36594;DHT22;22603;47.900;8.146;2024-01-30T15:39:50;7.90;99.90
36594;DHT22;22603;47.900;8.146;2024-01-30T15:42:36;7.70;99.90
36594;DHT22;22603;47.900;8.146;2024-01-30T15:45:25;7.60;99.90
36594;DHT22;22603;47.900;8.146;2024-01-30T15:48:15;7.60;99.90
36594;DHT22;22603;47.900;8.146;2024-01-30T15:51:02;7.50;99.90
36594;DHT22;22603;47.900;8.146;2024-01-30T15:53:50;7.40;99.90
36594;DHT22;22603;47.900;8.146;2024-01-30T15:56:37;7.20;99.90
36594;DHT22;22603;47.900;8.146;2024-01-30T15:59:24;7.30;99.90
36594;DHT22;22603;47.900;8.146;2024-01-30T16:02:12;7.20;99.90
36594;DHT22;22603;47.900;8.146;2024-01-30T16:05:01;7.20;99.90
36594;DHT22;22603;47.900;8.146;2024-01-30T16:07:49;7.10;99.90
36594;DHT22;22603;47.900;8.146;2024-01-30T16:10:35;7.10;99.90
36594;DHT22;22603;47.900;8.146;2024-01-30T16:13:22;7.00;99.90
36594;DHT22;22603;47.900;8.146;2024-01-30T16:16:09;6.90;99.90
36594;DHT22;22603;47.900;8.146;2024-01-30T16:18:56;6.80;99.90
36594;DHT22;22603;47.900;8.146;2024-01-30T16:21:44;6.70;99.90
36594;DHT22;22603;47.900;8.146;2024-01-30T16:24:31;6.70;99.90
36594;DHT22;22603;47.900;8.146;2024-01-30T16:27:18;6.50;99.90
36594;DHT22;22603;47.900;8.146;2024-01-30T16:30:05;6.50;99.90
36594;DHT22;22603;47.900;8.146;2024-01-30T16:32:53;6.40;99.90
36594;DHT22;22603;47.900;8.146;2024-01-30T16:35:39;6.20;99.90
36594;DHT22;22603;47.900;8.146;2024-01-30T16:38:33;6.10;99.90
36594;DHT22;22603;47.900;8.146;2024-01-30T16:41:19;6.20;99.90
36594;DHT22;22603;47.900;8.146;2024-01-30T16:44:06;6.00;99.90
36594;DHT22;22603;47.900;8.146;2024-01-30T16:46:53;5.90;99.90
36594;DHT22;22603;47.900;8.146;2024-01-30T16:49:40;5.90;99.90
36594;DHT22;22603;47.900;8.146;2024-01-30T16:52:27;5.70;99.90
36594;DHT22;22603;47.900;8.146;2024-01-30T16:55:15;5.60;99.90
36594;DHT22;22603;47.900;8.146;2024-01-30T16:58:04;5.60;99.90
36594;DHT22;22603;47.900;8.146;2024-01-30T17:00:51;5.60;99.90
36594;DHT22;22603;47.900;8.146;2024-01-30T17:03:38;5.50;99.90
36594;DHT22;22603;47.900;8.146;2024-01-30T17:06:28;5.50;99.90
36594;DHT22;22603;47.900;8.146;2024-01-30T17:09:26;5.40;99.90
36594;DHT22;22603;47.900;8.146;2024-01-30T17:12:16;5.40;99.90
36594;DHT22;22603;47.900;8.146;2024-01-30T17:15:06;5.30;99.90
36594;DHT22;22603;47.900;8.146;2024-01-30T17:17:52;5.30;99.90
36594;DHT22;22603;47.900;8.146;2024-01-30T17:20:41;5.30;99.90
36594;DHT22;22603;47.900;8.146;2024-01-30T17:23:28;5.20;99.90
36594;DHT22;22603;47.900;8.146;2024-01-30T17:26:15;5.20;99.90
36594;DHT22;22603;47.900;8.146;2024-01-30T17:29:03;5.20;99.90
36594;DHT22;22603;47.900;8.146;2024-01-30T17:31:51;5.20;99.90
36594;DHT22;22603;47.900;8.146;2024-01-30T17:34:38;5.10;99.90
36594;DHT22;22603;47.900;8.146;2024-01-30T17:37:26;4.70;99.90
36594;DHT22;22603;47.900;8.146;2024-01-30T17:40:12;4.80;99.90
36594;DHT22;22603;47.900;8.146;2024-01-30T17:43:02;4.80;99.90
36594;DHT22;22603;47.900;8.146;2024-01-30T17:45:50;4.90;99.90